Webcam Flughafen St.Gallen-Altenrhein

Live-Bilder und Zeitraffer LSZR / ACH.

 

Live aus Altenrhein
LIVE
LSZR 031950Z AUTO VRB06KT CAVOK 00/M02 Q0997
Zeitraffer heute
2020-12-03 00:14:13
LSZR 022250Z AUTO 12002KT 4800 BR BKN010 OVC012 M00/M00 Q1013 RESN